Time;durP1;ratioP1;P1;durP2;ratioP2;P2;SDS_P1;SDS_P2;PMS_P1;PMS_P2;Temp;Humidity;BMP_temperature;BMP_pressure;BME280_temperature;BME280_humidity;BME280_pressure;Samples;Min_cycle;Max_cycle;Signal;HPM_P1;HPM_P2
2024/01/04 00:00:39;;;;;;;16.10;6.70;;;;;;;7.45;100.00;98065.45;214314;1288;139911;-89
2024/01/04 00:05:40;;;;;;;14.10;5.30;;;;;;;7.44;100.00;98065.95;214260;1291;139089;-86
2024/01/04 00:10:40;;;;;;;15.40;6.00;;;;;;;7.44;100.00;98065.94;213687;1288;140115;-86
2024/01/04 00:15:40;;;;;;;15.60;6.00;;;;;;;7.43;100.00;98067.36;214467;1290;138678;-87
2024/01/04 00:20:42;;;;;;;14.50;5.30;;;;;;;7.41;100.00;98062.61;213995;1289;140242;-87
2024/01/04 00:25:43;;;;;;;16.60;6.20;;;;;;;7.40;100.00;98063.80;215465;1288;140445;-87
2024/01/04 00:30:43;;;;;;;14.60;6.40;;;;;;;7.39;100.00;98065.94;213777;1291;139754;-87
2024/01/04 00:35:44;;;;;;;13.90;5.30;;;;;;;7.39;100.00;98065.16;214536;1291;97964;-86
2024/01/04 00:40:44;;;;;;;12.80;5.20;;;;;;;7.39;100.00;98057.10;214048;1286;139534;-87
2024/01/04 00:45:45;;;;;;;14.60;5.10;;;;;;;7.40;100.00;98057.39;214550;1289;138655;-86
2024/01/04 00:50:45;;;;;;;14.20;5.50;;;;;;;7.39;100.00;98056.86;213717;1290;139956;-87
2024/01/04 00:55:46;;;;;;;13.90;5.40;;;;;;;7.39;100.00;98058.19;214652;1289;138761;-86
2024/01/04 01:00:47;;;;;;;14.00;5.10;;;;;;;7.39;100.00;98054.44;214056;1289;143035;-87
2024/01/04 01:05:47;;;;;;;14.40;5.30;;;;;;;7.40;100.00;98052.48;214623;1287;99012;-86
2024/01/04 01:10:48;;;;;;;13.40;4.60;;;;;;;7.41;100.00;98052.39;213901;1291;139510;-86
2024/01/04 01:15:48;;;;;;;12.70;4.70;;;;;;;7.41;100.00;98057.70;214566;1288;138883;-87
2024/01/04 01:20:49;;;;;;;13.90;4.50;;;;;;;7.42;100.00;98059.25;214050;1288;141162;-88
2024/01/04 01:25:50;;;;;;;13.40;4.80;;;;;;;7.41;100.00;98059.11;214538;1291;138512;-87
2024/01/04 01:30:51;;;;;;;11.60;5.00;;;;;;;7.40;100.00;98060.98;213929;1291;139829;-89
2024/01/04 01:35:51;;;;;;;11.30;4.80;;;;;;;7.41;100.00;98057.70;214558;1290;98020;-86
2024/01/04 01:40:52;;;;;;;14.30;5.20;;;;;;;7.42;100.00;98056.66;213956;1288;139333;-88
2024/01/04 01:45:52;;;;;;;10.40;4.40;;;;;;;7.42;100.00;98055.64;214303;1291;139017;-87
2024/01/04 01:50:53;;;;;;;14.10;4.80;;;;;;;7.41;100.00;98057.15;214045;1288;140775;-87
2024/01/04 01:55:54;;;;;;;12.40;4.90;;;;;;;7.40;100.00;98058.81;214537;1291;138819;-90
2024/01/04 02:00:55;;;;;;;11.30;4.50;;;;;;;7.39;100.00;98060.15;214001;1288;139643;-88
2024/01/04 02:05:55;;;;;;;15.00;4.30;;;;;;;7.38;100.00;98060.01;214591;1289;97918;-87
2024/01/04 02:10:55;;;;;;;17.90;5.00;;;;;;;7.38;100.00;98058.84;213916;1287;139492;-87
2024/01/04 02:15:56;;;;;;;11.40;4.40;;;;;;;7.37;100.00;98057.66;213966;1286;138827;-87
2024/01/04 02:20:56;;;;;;;12.00;4.00;;;;;;;7.38;100.00;98058.36;213920;1291;140045;-87
2024/01/04 02:25:57;;;;;;;12.20;4.10;;;;;;;7.38;100.00;98051.40;214378;1291;139117;-87
2024/01/04 02:30:57;;;;;;;11.80;4.30;;;;;;;7.38;100.00;98054.99;213892;1291;139631;-87
2024/01/04 02:35:57;;;;;;;9.10;3.50;;;;;;;7.39;100.00;98057.17;214237;1286;97982;-88
2024/01/04 02:40:58;;;;;;;13.00;4.90;;;;;;;7.38;100.00;98054.68;213857;1286;139036;-88
2024/01/04 02:45:58;;;;;;;11.20;4.00;;;;;;;7.38;100.00;98050.86;214146;1286;138877;-87
2024/01/04 02:50:59;;;;;;;11.50;4.30;;;;;;;7.37;100.00;98051.51;213995;1286;139387;-86
2024/01/04 02:55:59;;;;;;;12.90;4.90;;;;;;;7.34;100.00;98044.27;214272;1289;138765;-87
2024/01/04 03:01:00;;;;;;;8.30;3.70;;;;;;;7.33;100.00;98046.63;213566;1291;139651;-86
2024/01/04 03:06:01;;;;;;;8.70;3.70;;;;;;;7.31;100.00;98046.33;214504;1288;98038;-87
2024/01/04 03:11:02;;;;;;;9.40;3.70;;;;;;;7.31;100.00;98050.64;213922;1291;139613;-86
2024/01/04 03:16:03;;;;;;;11.20;3.30;;;;;;;7.32;100.00;98045.55;214224;1291;139338;-85
2024/01/04 03:21:08;;;;;;;9.80;3.30;;;;;;;7.32;100.00;98043.98;213979;1288;140020;-86
2024/01/04 03:26:08;;;;;;;10.10;3.30;;;;;;;7.33;100.00;98039.52;214580;1291;138858;-86
2024/01/04 03:31:09;;;;;;;11.70;3.50;;;;;;;7.34;100.00;98040.98;213613;1291;140164;-86
2024/01/04 03:36:12;;;;;;;9.50;3.00;;;;;;;7.35;100.00;98038.15;214377;1289;98034;-87
2024/01/04 03:41:12;;;;;;;14.90;3.90;;;;;;;7.35;100.00;98037.05;213907;1287;139745;-87
2024/01/04 03:46:13;;;;;;;8.50;3.40;;;;;;;7.36;100.00;98037.44;214351;1290;138617;-89
2024/01/04 03:51:14;;;;;;;7.50;3.30;;;;;;;7.37;100.00;98038.99;213988;1289;139280;-86
2024/01/04 03:56:15;;;;;;;9.60;3.00;;;;;;;7.38;100.00;98042.48;214171;1286;138480;-87
2024/01/04 04:01:16;;;;;;;8.60;3.30;;;;;;;7.39;100.00;98045.22;214141;1287;139388;-88
2024/01/04 04:06:20;;;;;;;10.00;3.60;;;;;;;7.40;100.00;98045.59;214733;1286;98106;-86
2024/01/04 04:11:21;;;;;;;9.40;4.10;;;;;;;7.42;100.00;98047.52;214319;1288;139251;-87
2024/01/04 04:16:22;;;;;;;10.00;3.40;;;;;;;7.43;100.00;98046.02;214459;1291;138374;-89
2024/01/04 04:21:24;;;;;;;8.70;3.30;;;;;;;7.45;100.00;98047.33;213859;1291;139899;-88
2024/01/04 04:26:24;;;;;;;10.20;2.90;;;;;;;7.45;100.00;98047.55;213986;1289;138701;-88
2024/01/04 04:31:25;;;;;;;9.20;3.20;;;;;;;7.45;100.00;98048.56;214053;1291;139480;-86
2024/01/04 04:36:25;;;;;;;8.50;3.40;;;;;;;7.46;100.00;98053.55;214348;1286;97984;-85
2024/01/04 04:41:26;;;;;;;5.50;2.40;;;;;;;7.47;100.00;98059.64;213695;1291;139625;-87
2024/01/04 04:46:26;;;;;;;7.20;2.80;;;;;;;7.48;100.00;98062.36;214379;1287;138937;-86
2024/01/04 04:51:27;;;;;;;9.80;3.00;;;;;;;7.48;100.00;98061.73;214059;1287;139317;-87
2024/01/04 04:56:27;;;;;;;8.40;3.00;;;;;;;7.48;100.00;98065.41;214533;1295;139486;-86
2024/01/04 05:01:28;;;;;;;8.80;3.10;;;;;;;7.50;100.00;98070.38;213571;1289;140003;-86
2024/01/04 05:06:28;;;;;;;13.60;3.30;;;;;;;7.51;100.00;98075.98;214319;1291;98016;-86
2024/01/04 05:11:29;;;;;;;10.00;3.20;;;;;;;7.52;100.00;98075.29;213810;1290;139753;-88
2024/01/04 05:16:30;;;;;;;10.50;3.70;;;;;;;7.53;100.00;98076.45;214411;1289;138660;-87
2024/01/04 05:21:33;;;;;;;9.30;4.00;;;;;;;7.53;100.00;98078.70;213924;1286;140137;-86
2024/01/04 05:26:34;;;;;;;8.70;4.30;;;;;;;7.54;100.00;98078.07;214111;1292;139526;-87
2024/01/04 05:31:35;;;;;;;7.40;4.10;;;;;;;7.55;100.00;98082.45;213924;1291;139352;-88
2024/01/04 05:36:36;;;;;;;16.20;4.90;;;;;;;7.54;100.00;98087.14;214411;1290;97978;-86
2024/01/04 05:41:36;;;;;;;10.30;4.80;;;;;;;7.55;100.00;98090.26;213957;1289;139310;-86
2024/01/04 05:46:37;;;;;;;16.70;5.90;;;;;;;7.55;100.00;98097.44;214365;1293;138855;-87
2024/01/04 05:51:37;;;;;;;9.40;4.30;;;;;;;7.56;100.00;98099.00;213827;1290;139734;-87
2024/01/04 05:56:38;;;;;;;11.10;4.30;;;;;;;7.56;100.00;98103.84;214363;1286;138449;-87
2024/01/04 06:01:39;;;;;;;12.30;4.50;;;;;;;7.56;100.00;98106.34;213652;1286;139746;-87
2024/01/04 06:06:39;;;;;;;11.90;5.70;;;;;;;7.56;100.00;98112.21;214378;1292;99286;-88
2024/01/04 06:11:40;;;;;;;9.20;4.50;;;;;;;7.55;100.00;98115.05;213890;1292;139447;-90
2024/01/04 06:16:40;;;;;;;14.10;7.30;;;;;;;7.55;100.00;98117.61;214350;1286;138416;-91
2024/01/04 06:21:41;;;;;;;13.80;7.20;;;;;;;7.56;100.00;98124.09;214192;1288;139692;-90
2024/01/04 06:26:42;;;;;;;15.20;8.90;;;;;;;7.56;100.00;98128.00;214885;1289;138567;-91
2024/01/04 06:31:42;;;;;;;13.00;8.20;;;;;;;7.57;100.00;98131.42;214994;1291;139492;-91
2024/01/04 06:36:42;;;;;;;13.20;7.90;;;;;;;7.57;100.00;98129.86;214709;1289;99261;-91
2024/01/04 06:41:44;;;;;;;15.00;8.70;;;;;;;7.56;100.00;98129.64;213972;1291;139475;-90
2024/01/04 06:46:45;;;;;;;12.10;8.10;;;;;;;7.57;100.00;98131.27;214538;1289;139660;-91
2024/01/04 06:51:46;;;;;;;22.70;13.20;;;;;;;7.57;100.00;98136.74;213862;1294;139329;-91
2024/01/04 06:56:46;;;;;;;16.30;10.40;;;;;;;7.56;100.00;98133.48;214501;1290;139230;-93
2024/01/04 07:01:47;;;;;;;17.70;10.10;;;;;;;7.55;100.00;98132.80;214131;1291;139995;-92
2024/01/04 07:06:48;;;;;;;19.60;13.90;;;;;;;7.54;100.00;98134.38;214737;1287;139250;-92
2024/01/04 07:11:48;;;;;;;17.10;11.80;;;;;;;7.52;100.00;98133.61;214705;1286;140204;-91
2024/01/04 07:16:50;;;;;;;19.20;10.30;;;;;;;7.53;100.00;98139.08;215704;1288;138602;-93
2024/01/04 07:21:52;;;;;;;16.20;10.60;;;;;;;7.52;100.00;98139.02;214877;1291;139978;-92
2024/01/04 07:26:53;;;;;;;21.60;11.60;;;;;;;7.51;100.00;98136.27;215648;1290;138772;-92
2024/01/04 07:31:55;;;;;;;16.10;8.00;;;;;;;7.51;100.00;98140.97;214946;1286;140499;-93
2024/01/04 07:36:55;;;;;;;12.00;6.10;;;;;;;7.51;100.00;98139.24;215001;1287;138877;-92
2024/01/04 07:41:56;;;;;;;7.50;3.40;;;;;;;7.50;100.00;98137.31;214192;1291;140244;-93
2024/01/04 07:46:56;;;;;;;10.00;3.30;;;;;;;7.51;100.00;98139.71;214469;1288;138690;-89
2024/01/04 07:51:57;;;;;;;7.90;3.50;;;;;;;7.50;100.00;98136.75;213762;1291;139811;-93
2024/01/04 07:56:59;;;;;;;6.50;2.90;;;;;;;7.49;100.00;98137.64;214022;1291;138329;-92
2024/01/04 08:02:00;;;;;;;6.80;2.70;;;;;;;7.47;100.00;98138.52;214023;1288;139609;-93
2024/01/04 08:07:01;;;;;;;6.80;3.00;;;;;;;7.46;100.00;98142.52;214785;1287;138439;-94
2024/01/04 08:12:01;;;;;;;6.10;2.80;;;;;;;7.45;100.00;98151.52;214669;1288;139201;-93
2024/01/04 08:17:02;;;;;;;15.60;5.30;;;;;;;7.44;100.00;98152.41;215189;1288;138394;-93
2024/01/04 08:22:03;;;;;;;15.00;6.60;;;;;;;7.43;100.00;98160.55;213957;1291;139622;-94
2024/01/04 08:27:03;;;;;;;10.40;3.10;;;;;;;7.43;100.00;98162.67;214294;1288;138770;-92
2024/01/04 08:32:04;;;;;;;7.60;3.90;;;;;;;7.43;100.00;98159.45;213945;1286;139674;-92
2024/01/04 08:37:05;;;;;;;7.70;2.80;;;;;;;7.45;100.00;98156.14;214355;1288;139698;-91
2024/01/04 08:42:06;;;;;;;9.10;2.90;;;;;;;7.47;100.00;98155.64;213969;1291;139350;-92
2024/01/04 08:47:07;;;;;;;7.00;2.70;;;;;;;7.49;100.00;98156.95;214418;1288;138777;-92
2024/01/04 08:52:07;;;;;;;10.90;2.90;;;;;;;7.50;100.00;98158.26;213714;1290;139962;-90
2024/01/04 08:57:08;;;;;;;6.80;2.50;;;;;;;7.51;100.00;98165.36;214122;1287;139719;-89
2024/01/04 09:02:09;;;;;;;8.90;3.40;;;;;;;7.53;100.00;98169.88;214009;1287;139426;-91
2024/01/04 09:07:10;;;;;;;6.00;2.70;;;;;;;7.55;100.00;98174.78;214236;1291;138657;-91
2024/01/04 09:12:11;;;;;;;6.30;2.50;;;;;;;7.57;100.00;98181.09;214191;1286;139710;-92
2024/01/04 09:17:11;;;;;;;6.60;2.60;;;;;;;7.59;100.00;98182.07;214257;1286;138753;-94
2024/01/04 09:22:12;;;;;;;9.80;2.40;;;;;;;7.62;100.00;98191.50;214231;1286;139775;-92
2024/01/04 09:27:12;;;;;;;10.10;2.50;;;;;;;7.64;100.00;98198.98;214803;1288;139091;-92
2024/01/04 09:32:13;;;;;;;7.20;2.80;;;;;;;7.65;100.00;98199.90;213682;1289;139986;-93
2024/01/04 09:37:14;;;;;;;5.90;2.70;;;;;;;7.67;100.00;98207.46;214275;1286;139521;-92
2024/01/04 09:42:21;;;;;;;7.20;2.80;;;;;;;7.68;100.00;98206.73;213783;1288;139492;-92
2024/01/04 09:47:23;;;;;;;7.40;2.60;;;;;;;7.70;100.00;98202.55;214029;1291;438521;-91
2024/01/04 09:52:25;;;;;;;5.90;2.70;;;;;;;7.72;100.00;98203.02;214406;1287;139366;-92
2024/01/04 09:57:25;;;;;;;5.00;2.20;;;;;;;7.73;100.00;98197.77;214255;1291;138570;-93
2024/01/04 10:02:26;;;;;;;6.70;2.90;;;;;;;7.73;100.00;98197.13;214218;1287;139785;-92
2024/01/04 10:07:33;;;;;;;4.90;2.30;;;;;;;7.74;100.00;98204.25;214775;1286;138893;-91
2024/01/04 10:12:36;;;;;;;3.30;1.70;;;;;;;7.76;100.00;98205.55;213798;1288;139918;-94
2024/01/04 10:17:39;;;;;;;4.90;2.00;;;;;;;7.77;100.00;98205.68;214541;1291;138121;-91
2024/01/04 10:22:40;;;;;;;7.30;2.90;;;;;;;7.80;100.00;98207.38;213773;1287;139366;-92
2024/01/04 10:27:41;;;;;;;6.00;2.90;;;;;;;7.82;100.00;98211.33;214771;1287;138526;-93
2024/01/04 10:32:49;;;;;;;5.50;2.50;;;;;;;7.85;100.00;98215.29;213832;1287;139250;-93
2024/01/04 10:38:00;;;;;;;11.50;3.60;;;;;;;7.86;100.00;98214.16;214481;1286;138657;-92
2024/01/04 10:43:02;;;;;;;7.00;2.80;;;;;;;7.88;100.00;98216.81;213990;1287;140057;-91
2024/01/04 10:48:05;;;;;;;3.20;1.60;;;;;;;7.88;100.00;98211.02;214216;1288;98018;-91
2024/01/04 10:53:09;;;;;;;6.60;1.90;;;;;;;7.85;100.00;98214.89;213547;1286;139216;-91
2024/01/04 10:58:10;;;;;;;4.30;1.60;;;;;;;7.80;100.00;98255.02;214388;1286;139288;-91
2024/01/04 11:03:11;;;;;;;4.70;1.30;;;;;;;7.62;100.00;98256.48;214720;1287;139292;-95
2024/01/04 11:08:13;;;;;;;5.40;1.70;;;;;;;7.40;100.00;98250.95;214835;1287;140621;-93
2024/01/04 11:13:14;;;;;;;4.90;1.70;;;;;;;7.28;100.00;98257.34;214292;1286;139429;-93
2024/01/04 11:18:35;;;;;;;3.50;1.10;;;;;;;7.15;100.00;98263.02;214834;1287;98362;-93
2024/01/04 11:23:58;;;;;;;3.80;1.30;;;;;;;6.98;100.00;98269.52;213965;1286;140030;-95
2024/01/04 11:29:06;;;;;;;2.50;1.00;;;;;;;6.80;100.00;98268.27;214593;1290;138821;-91
2024/01/04 11:34:09;;;;;;;3.30;1.10;;;;;;;6.63;100.00;98265.85;213617;1290;140579;-90
2024/01/04 11:39:10;;;;;;;4.60;1.40;;;;;;;6.50;100.00;98264.15;214465;1291;138374;-93
2024/01/04 11:44:17;;;;;;;3.10;1.10;;;;;;;6.42;100.00;98256.25;214348;1289;139789;-92
2024/01/04 11:49:19;;;;;;;3.00;1.20;;;;;;;6.41;100.00;98261.09;214683;1291;138583;-91
2024/01/04 11:54:21;;;;;;;3.30;0.80;;;;;;;6.41;100.00;98265.24;214456;1290;139382;-90
2024/01/04 11:59:30;;;;;;;5.80;1.90;;;;;;;6.34;100.00;98273.32;214885;1286;139505;-90
2024/01/04 12:04:31;;;;;;;3.20;1.20;;;;;;;6.31;100.00;98278.73;214331;1286;139090;-92
2024/01/04 12:09:32;;;;;;;4.90;1.70;;;;;;;6.26;100.00;98281.96;214530;1287;138546;-89
2024/01/04 12:14:39;;;;;;;3.10;1.30;;;;;;;6.19;100.00;98288.17;214026;1287;139625;-89
2024/01/04 12:19:39;;;;;;;3.70;1.60;;;;;;;6.16;100.00;98289.67;214948;1291;139216;-90
2024/01/04 12:24:42;;;;;;;5.60;1.90;;;;;;;6.12;100.00;98288.05;214474;1287;139907;-90
2024/01/04 12:29:44;;;;;;;5.50;2.00;;;;;;;6.07;100.00;98293.15;214679;1286;139114;-91
2024/01/04 12:34:45;;;;;;;5.30;2.10;;;;;;;6.01;100.00;98311.13;213876;1288;140668;-91
2024/01/04 12:39:46;;;;;;;2.20;1.10;;;;;;;5.93;100.00;98322.77;214520;1286;139595;-94
2024/01/04 12:44:50;;;;;;;9.10;0.80;;;;;;;5.77;100.00;98327.11;214438;1286;139231;-93
2024/01/04 12:49:56;;;;;;;4.90;1.20;;;;;;;5.61;100.00;98327.94;214135;1289;163694;-92
2024/01/04 12:54:57;;;;;;;3.00;1.30;;;;;;;5.48;100.00;98325.95;215024;1288;139295;-91
2024/01/04 13:00:01;;;;;;;3.80;1.40;;;;;;;5.40;100.00;98334.38;214160;1291;139189;-92
2024/01/04 13:05:01;;;;;;;2.60;0.80;;;;;;;5.31;100.00;98342.97;214841;1288;139586;-93
2024/01/04 13:10:02;;;;;;;3.80;1.70;;;;;;;5.20;100.00;98350.16;214392;1291;142223;-87
2024/01/04 13:15:07;;;;;;;4.70;2.00;;;;;;;5.07;100.00;98355.15;214934;1291;139549;-88
2024/01/04 13:20:08;;;;;;;4.60;1.60;;;;;;;4.93;100.00;98366.21;214435;1286;140326;-92
2024/01/04 13:25:10;;;;;;;5.50;1.60;;;;;;;4.84;100.00;98367.84;215337;1286;138631;-89
2024/01/04 13:30:12;;;;;;;3.60;1.40;;;;;;;4.76;100.00;98374.36;214934;1287;140558;-90
2024/01/04 13:35:13;;;;;;;6.20;2.20;;;;;;;4.68;100.00;98384.48;217460;1286;138155;-88
2024/01/04 13:40:14;;;;;;;11.10;4.00;;;;;;;4.59;100.00;98392.25;214299;1287;139616;-90
2024/01/04 13:45:16;;;;;;;8.40;2.90;;;;;;;4.55;100.00;98399.33;214892;1287;138587;-88
2024/01/04 13:50:16;;;;;;;5.00;1.90;;;;;;;4.54;100.00;98407.27;214432;1288;139585;-89
2024/01/04 13:55:17;;;;;;;5.90;2.10;;;;;;;4.51;100.00;98411.22;214873;1287;138418;-88
2024/01/04 14:00:17;;;;;;;3.10;1.30;;;;;;;4.49;100.00;98414.95;214637;1288;139764;-88
2024/01/04 14:05:18;;;;;;;3.10;1.70;;;;;;;4.47;100.00;98420.00;214909;1287;138260;-88
2024/01/04 14:10:18;;;;;;;4.60;1.50;;;;;;;4.43;100.00;98422.10;214485;1287;140039;-90
2024/01/04 14:15:22;;;;;;;4.00;1.60;;;;;;;4.36;100.00;98427.20;215250;1287;138527;-90
2024/01/04 14:20:26;;;;;;;5.60;1.60;;;;;;;4.22;100.00;98435.02;214898;1286;139763;-89
2024/01/04 14:25:26;;;;;;;6.00;1.70;;;;;;;4.14;100.00;98446.64;216873;1287;139616;-90
2024/01/04 14:30:27;;;;;;;5.20;2.30;;;;;;;4.08;100.00;98455.08;214661;1287;139402;-88
2024/01/04 14:35:28;;;;;;;4.30;1.90;;;;;;;4.01;100.00;98464.84;215001;1290;138192;-88
2024/01/04 14:40:28;;;;;;;6.40;1.70;;;;;;;3.95;100.00;98467.99;214965;1287;140284;-90
2024/01/04 14:45:29;;;;;;;2.90;1.30;;;;;;;3.89;100.00;98482.27;216644;1288;139081;-89
2024/01/04 14:50:30;;;;;;;4.60;1.80;;;;;;;3.85;100.00;98498.64;214252;1287;140318;-88
2024/01/04 14:55:32;;;;;;;3.30;1.60;;;;;;;3.82;100.00;98504.07;214536;1288;138369;-91
2024/01/04 15:00:32;;;;;;;4.80;2.00;;;;;;;3.81;100.00;98504.67;214014;1287;140735;-88
2024/01/04 15:05:33;;;;;;;7.00;1.80;;;;;;;3.77;100.00;98520.66;214407;1288;139381;-88
2024/01/04 15:10:34;;;;;;;4.20;1.60;;;;;;;3.75;100.00;98528.65;214578;1286;139719;-88
2024/01/04 15:15:35;;;;;;;7.30;2.50;;;;;;;3.74;100.00;98534.79;214508;1291;138329;-88
2024/01/04 15:20:35;;;;;;;7.00;3.00;;;;;;;3.70;100.00;98539.27;214258;1287;139506;-88
2024/01/04 15:25:37;;;;;;;4.40;1.80;;;;;;;3.65;100.00;98550.10;214659;1287;138502;-88
2024/01/04 15:30:38;;;;;;;4.80;2.00;;;;;;;3.57;100.00;98552.98;214443;1286;139994;-87
2024/01/04 15:35:39;;;;;;;3.40;1.90;;;;;;;3.52;100.00;98561.57;214904;1288;138040;-88
2024/01/04 15:40:39;;;;;;;5.40;2.20;;;;;;;3.48;100.00;98568.85;214761;1288;140573;-88
2024/01/04 15:45:42;;;;;;;7.10;2.10;;;;;;;3.45;100.00;98573.32;214957;1286;138584;-89
2024/01/04 15:50:42;;;;;;;5.20;2.10;;;;;;;3.40;100.00;98577.45;214100;1286;139454;-89
2024/01/04 15:55:43;;;;;;;5.00;2.00;;;;;;;3.34;100.00;98583.30;214489;1287;139024;-89
2024/01/04 16:00:43;;;;;;;8.70;2.50;;;;;;;3.31;100.00;98590.50;214448;1290;139717;-88
2024/01/04 16:05:44;;;;;;;5.70;2.50;;;;;;;3.30;100.00;98602.91;214910;1287;137924;-89
2024/01/04 16:10:45;;;;;;;7.70;3.30;;;;;;;3.27;100.00;98606.15;214247;1287;140073;-87
2024/01/04 16:15:45;;;;;;;21.40;8.50;;;;;;;3.24;100.00;98615.05;214584;1287;139034;-88
2024/01/04 16:20:46;;;;;;;11.80;4.70;;;;;;;3.23;100.00;98627.46;214145;1290;139880;-89
2024/01/04 16:25:47;;;;;;;10.30;4.30;;;;;;;3.20;100.00;98636.45;214740;1290;138641;-88
2024/01/04 16:30:48;;;;;;;10.60;4.00;;;;;;;3.20;100.00;98647.92;214210;1286;140369;-88
2024/01/04 16:35:48;;;;;;;8.30;3.60;;;;;;;3.16;100.00;98663.19;214576;1289;97996;-88
2024/01/04 16:40:49;;;;;;;4.70;2.30;;;;;;;3.13;100.00;98692.96;213986;1286;139402;-90
2024/01/04 16:45:49;;;;;;;7.20;3.20;;;;;;;3.01;100.00;98716.41;214760;1288;138943;-88
2024/01/04 16:50:50;;;;;;;10.30;3.70;;;;;;;2.85;100.00;98741.42;213874;1285;139471;-88
2024/01/04 16:55:51;;;;;;;10.20;4.40;;;;;;;2.65;100.00;98769.50;214763;1291;139410;-88
2024/01/04 17:00:54;;;;;;;9.20;3.40;;;;;;;2.51;100.00;98794.41;214209;1291;139659;-91
2024/01/04 17:05:54;;;;;;;7.40;2.80;;;;;;;2.37;100.00;98827.84;214892;1287;97960;-88
2024/01/04 17:10:55;;;;;;;8.60;3.80;;;;;;;2.22;100.00;98849.29;214305;1286;139276;-88
2024/01/04 17:15:55;;;;;;;7.40;3.50;;;;;;;2.06;100.00;98870.77;214583;1289;139095;-86
2024/01/04 17:20:56;;;;;;;8.30;3.30;;;;;;;1.87;100.00;98885.05;214098;1288;140030;-89
2024/01/04 17:25:57;;;;;;;9.50;3.90;;;;;;;1.72;100.00;98911.14;214477;1291;138779;-89
2024/01/04 17:30:57;;;;;;;9.10;3.70;;;;;;;1.57;100.00;98927.45;214312;1287;139659;-87
2024/01/04 17:35:59;;;;;;;7.40;3.20;;;;;;;1.50;100.00;98957.25;215015;1288;98078;-89
2024/01/04 17:40:59;;;;;;;9.10;3.80;;;;;;;1.41;100.00;98982.30;214005;1290;139794;-88
2024/01/04 17:46:01;;;;;;;9.80;4.90;;;;;;;1.28;100.00;98998.71;215195;1290;138493;-88
2024/01/04 17:51:04;;;;;;;7.40;2.70;;;;;;;1.19;100.00;99014.27;215286;1286;139927;-87
2024/01/04 17:56:04;;;;;;;9.60;4.10;;;;;;;1.15;100.00;99034.91;216650;1287;138462;-86
2024/01/04 18:01:05;;;;;;;7.30;3.20;;;;;;;1.09;100.00;99053.80;215069;1287;140589;-86
2024/01/04 18:06:08;;;;;;;7.70;3.70;;;;;;;1.00;100.00;99072.08;215737;1286;97891;-87
2024/01/04 18:11:09;;;;;;;6.40;3.30;;;;;;;0.99;100.00;99089.05;214740;1287;139448;-89
2024/01/04 18:16:10;;;;;;;7.00;3.30;;;;;;;0.93;100.00;99110.41;214592;1289;138571;-87
2024/01/04 18:21:13;;;;;;;8.40;3.60;;;;;;;0.88;100.00;99124.42;214082;1288;139493;-88
2024/01/04 18:26:14;;;;;;;10.60;3.70;;;;;;;0.88;100.00;99141.12;214616;1288;139678;-87
2024/01/04 18:31:15;;;;;;;9.80;4.40;;;;;;;0.81;100.00;99153.88;213822;1288;140002;-88
2024/01/04 18:36:17;;;;;;;7.40;3.40;;;;;;;0.80;100.00;99168.77;214632;1287;97977;-88
2024/01/04 18:41:18;;;;;;;6.20;3.00;;;;;;;0.84;100.00;99181.80;214262;1288;140135;-86
2024/01/04 18:46:18;;;;;;;7.30;2.30;;;;;;;0.82;100.00;99191.95;214346;1288;137264;-87
2024/01/04 18:51:21;;;;;;;9.20;3.40;;;;;;;0.82;100.00;99198.92;214038;1288;139907;-89
2024/01/04 18:56:24;;;;;;;8.00;3.10;;;;;;;0.82;100.00;99204.27;214522;1290;138415;-88
2024/01/04 19:01:25;;;;;;;11.30;4.60;;;;;;;0.83;100.00;99218.90;214173;1287;139496;-88
2024/01/04 19:06:25;;;;;;;7.90;3.40;;;;;;;0.80;100.00;99229.36;214771;1288;98027;-87
2024/01/04 19:11:26;;;;;;;8.60;3.90;;;;;;;0.76;100.00;99239.65;214027;1286;140024;-87
2024/01/04 19:16:26;;;;;;;10.00;3.50;;;;;;;0.74;100.00;99248.60;214226;1287;139031;-88
2024/01/04 19:21:27;;;;;;;10.70;4.10;;;;;;;0.76;100.00;99265.25;213781;1288;139742;-87
2024/01/04 19:26:27;;;;;;;10.90;4.70;;;;;;;0.78;100.00;99278.31;214293;1292;138693;-86
2024/01/04 19:31:28;;;;;;;9.90;3.90;;;;;;;0.79;100.00;99288.58;214100;1288;139745;-87
2024/01/04 19:36:29;;;;;;;11.00;3.50;;;;;;;0.76;100.00;99300.16;214912;1287;99310;-86
2024/01/04 19:41:30;;;;;;;9.60;4.00;;;;;;;0.70;100.00;99305.23;214278;1291;139866;-87
2024/01/04 19:46:30;;;;;;;11.00;4.00;;;;;;;0.72;100.00;99324.65;214955;1288;138824;-86
2024/01/04 19:51:32;;;;;;;8.90;3.30;;;;;;;0.74;100.00;99333.07;214031;1290;139862;-86
2024/01/04 19:56:33;;;;;;;7.40;3.30;;;;;;;0.74;100.00;99343.20;215010;1287;139250;-86
2024/01/04 20:01:34;;;;;;;7.20;3.20;;;;;;;0.75;100.00;99349.11;214824;1287;140846;-88
2024/01/04 20:06:34;;;;;;;8.00;2.90;;;;;;;0.71;100.00;99356.33;216236;1289;97887;-86
2024/01/04 20:11:35;;;;;;;6.40;2.70;;;;;;;0.69;100.00;99375.38;215250;1287;139936;-87
2024/01/04 20:16:35;;;;;;;4.60;2.20;;;;;;;0.67;100.00;99386.45;215786;1288;139086;-87
2024/01/04 20:21:42;;;;;;;6.10;2.10;;;;;;;0.67;100.00;99400.75;215222;1291;139669;-88
2024/01/04 20:26:43;;;;;;;6.70;2.80;;;;;;;0.65;100.00;99411.64;215912;1286;139601;-87
2024/01/04 20:31:43;;;;;;;5.70;2.20;;;;;;;0.64;100.00;99417.13;215392;1287;139588;-88
2024/01/04 20:36:44;;;;;;;6.00;2.80;;;;;;;0.66;100.00;99428.70;216144;1287;98485;-85
2024/01/04 20:41:44;;;;;;;7.80;2.90;;;;;;;0.67;100.00;99441.34;213670;1286;139044;-86
2024/01/04 20:46:45;;;;;;;7.80;2.40;;;;;;;0.68;100.00;99447.95;214415;1288;138310;-86
2024/01/04 20:51:45;;;;;;;6.70;2.70;;;;;;;0.66;100.00;99455.80;214137;1289;139449;-86
2024/01/04 20:56:46;;;;;;;8.60;3.00;;;;;;;0.65;100.00;99459.06;214777;1287;138399;-85
2024/01/04 21:01:46;;;;;;;6.40;2.60;;;;;;;0.65;100.00;99462.25;214076;1291;139994;-86
2024/01/04 21:06:46;;;;;;;10.50;4.40;;;;;;;0.63;100.00;99471.38;215160;1288;99361;-89
2024/01/04 21:11:51;;;;;;;8.00;3.10;;;;;;;0.60;100.00;99478.08;214995;1285;140775;-88
2024/01/04 21:16:54;;;;;;;6.20;2.70;;;;;;;0.54;100.00;99499.69;216116;1290;138981;-86
2024/01/04 21:21:55;;;;;;;7.40;2.90;;;;;;;0.49;100.00;99510.88;215336;1288;139949;-86
2024/01/04 21:26:58;;;;;;;8.50;2.70;;;;;;;0.52;100.00;99514.92;215749;1289;138956;-87
2024/01/04 21:31:59;;;;;;;6.40;2.50;;;;;;;0.52;100.00;99529.90;215634;1286;140825;-85
2024/01/04 21:36:59;;;;;;;6.30;2.30;;;;;;;0.50;100.00;99536.56;215973;1288;138870;-86
2024/01/04 21:42:00;;;;;;;7.40;2.70;;;;;;;0.46;100.00;99546.64;215727;1288;140723;-89
2024/01/04 21:52:38;;;;;;;6.80;2.50;;;;;;;0.48;100.00;99566.75;191552;1291;97940;-89
2024/01/04 21:57:39;;;;;;;8.10;2.90;;;;;;;0.48;100.00;99574.01;214684;1288;138900;-91
2024/01/04 22:02:41;;;;;;;5.10;2.20;;;;;;;0.46;100.00;99586.16;213757;1288;139545;-89
2024/01/04 22:07:41;;;;;;;5.70;2.60;;;;;;;0.44;100.00;99596.23;214319;1287;138354;-89
2024/01/04 22:12:41;;;;;;;6.20;2.80;;;;;;;0.45;100.00;99600.73;214329;1288;139617;-88
2024/01/04 22:17:42;;;;;;;9.90;3.00;;;;;;;0.44;100.00;99606.67;214823;1290;139963;-89
2024/01/04 22:22:42;;;;;;;7.70;2.50;;;;;;;0.41;100.00;99608.04;213635;1291;139247;-89
2024/01/04 22:27:43;;;;;;;6.90;2.40;;;;;;;0.38;100.00;99603.33;214313;1291;139347;-89
2024/01/04 22:32:43;;;;;;;6.90;2.50;;;;;;;0.32;100.00;99601.70;213608;1288;139543;-88
2024/01/04 22:37:44;;;;;;;6.70;2.20;;;;;;;0.24;100.00;99606.21;214469;1290;138758;-90
2024/01/04 22:42:44;;;;;;;6.60;2.40;;;;;;;0.18;100.00;99618.64;213928;1290;139397;-90
2024/01/04 22:47:45;;;;;;;6.40;2.10;;;;;;;0.12;100.00;99628.70;214541;1288;139012;-90
2024/01/04 22:52:45;;;;;;;6.10;2.60;;;;;;;0.08;100.00;99631.94;214838;1291;139480;-91
2024/01/04 22:57:46;;;;;;;10.10;2.40;;;;;;;0.03;100.00;99630.64;215820;1290;139212;-92
2024/01/04 23:02:47;;;;;;;8.90;2.70;;;;;;;-0.04;100.00;99630.45;214980;1291;139678;-91